Burley Municipal Airport
KBYI : now visible

Airfield :











YOU CAN JOIN US ON...

 
LOGIN :

Register | Disclaimer

   EN    FR    IT 

 









Legend :    VFR   Marginal VFR   IFR   Intensive IFR   Very Intensive IFR
Visi :
Ceiling :
>= 8 km
>= 3000ft
5 to 8 km
1000 to 3000 ft
1500m to 5 km
500 to 1000 ft
800 to 1500m
200 to 500 ft
< 800m
< 200 ft
Symbols :   Thunderstorms  Fog  Heavy snow  Heavy precipitations  Wind > 20 kt







- Airport Elevation : 4150 ft


KBYI - Burley Municipal

CURRENT METAR :
  • 250953Z AUTO 20003KT 10SM FEW120 12/08 A2987 RMK AO2 SLP078 T01170078

EXPIRED METARs :
  • 250853Z AUTO 16003KT 10SM CLR 13/08 A2986 RMK AO2 SLP076 T01330083 58005
  • 250753Z AUTO 00000KT 10SM CLR 15/07 A2988 RMK AO2 SLP081 T01500072

TAF KBYI
Valid from the 25 at 06:00 until the 26 at 06:00 UTC


250520Z 2506/2606 VRB05KT P6SM VCSH SCT080 SCT180
FM251200 VRB05KT P6SM SCT180
FM251800 26011KT P6SM FEW180
FM260300 VRB05KT P6SM FEW250
KZLC FIR / North America



MET'MAP, your aeronautical weather chart ! - Copyright ORBIFLY December 2007 - Disclaimer

ORBIFLY MET'MAP TEAM :

Programming & Development : Alexandra Zaïnal
Concept & Development : Baudouin d'Aumeries
Co-Development & Prog : Marc-Olivier Méhu
Technical & hardware support : Manuel Goepfert

Contact : metmap@orbifly.com




SOURCES & CREDITS :

   NOAA       Earth
Advisory